createdAt,value
2019-06-08T00:01:40.407Z,15.68
2019-06-08T00:05:43.898Z,15.67
2019-06-08T00:09:47.396Z,15.66
2019-06-08T00:13:51.173Z,15.60
2019-06-08T00:17:54.696Z,15.55
2019-06-08T00:21:58.210Z,15.54
2019-06-08T00:26:02.083Z,15.51
2019-06-08T00:30:09.184Z,15.49
2019-06-08T00:34:14.446Z,15.33
2019-06-08T00:38:18.844Z,15.31
2019-06-08T00:42:23.313Z,15.29
2019-06-08T00:46:26.917Z,15.24
2019-06-08T00:50:30.703Z,15.16
2019-06-08T00:54:34.565Z,15.19
2019-06-08T00:59:18.398Z,15.09
2019-06-08T01:03:21.908Z,15.08
2019-06-08T01:07:26.299Z,15.11
2019-06-08T01:11:29.886Z,15.11
2019-06-08T01:20:37.033Z,15.08
2019-06-08T01:24:40.583Z,15.04
2019-06-08T01:28:44.125Z,14.99
2019-06-08T01:32:47.799Z,15.01
2019-06-08T01:36:51.303Z,15.03
2019-06-08T01:40:54.863Z,14.97
2019-06-08T01:44:58.366Z,14.82
2019-06-08T01:49:01.864Z,14.81
2019-06-08T01:53:05.742Z,14.80
2019-06-08T01:57:08.508Z,14.71
2019-06-08T02:01:11.565Z,14.57
2019-06-08T02:05:15.495Z,14.57
2019-06-08T02:09:18.328Z,14.50
2019-06-08T02:13:21.089Z,14.40
2019-06-08T02:17:25.088Z,14.34
2019-06-08T02:21:28.857Z,14.30
2019-06-08T02:25:33.558Z,14.31
2019-06-08T02:29:37.170Z,14.28
2019-06-08T02:33:40.685Z,14.26
2019-06-08T02:37:44.461Z,14.26
2019-06-08T02:41:47.960Z,14.28
2019-06-08T02:45:52.203Z,14.32
2019-06-08T02:49:56.031Z,14.32
2019-06-08T02:54:01.185Z,14.40
2019-06-08T02:58:06.120Z,14.45
2019-06-08T03:02:10.808Z,14.38
2019-06-08T03:06:15.448Z,14.37
2019-06-08T03:10:19.026Z,14.43
2019-06-08T03:14:25.558Z,14.33
2019-06-08T03:18:29.053Z,14.26
2019-06-08T03:22:34.297Z,14.33
2019-06-08T03:26:39.663Z,14.34
2019-06-08T03:30:52.882Z,14.27
2019-06-08T03:34:55.682Z,14.31
2019-06-08T03:38:54.234Z,14.39
2019-06-08T03:42:59.751Z,14.37
2019-06-08T03:47:02.982Z,14.43
2019-06-08T03:51:06.494Z,14.45
2019-06-08T03:55:10.226Z,14.45
2019-06-08T03:59:14.089Z,14.43
2019-06-08T04:03:17.598Z,14.39
2019-06-08T04:07:21.160Z,14.29
2019-06-08T04:11:24.670Z,14.12
2019-06-08T04:15:28.566Z,14.08
2019-06-08T04:19:32.060Z,14.18
2019-06-08T04:23:35.554Z,14.22
2019-06-08T04:27:40.399Z,14.46
2019-06-08T04:31:45.929Z,14.49
2019-06-08T04:35:50.735Z,14.51
2019-06-08T04:39:54.679Z,14.51
2019-06-08T04:43:58.232Z,14.69
2019-06-08T04:48:01.796Z,14.70
2019-06-08T04:52:05.635Z,14.47
2019-06-08T04:56:09.123Z,14.40
2019-06-08T05:00:13.535Z,14.53
2019-06-08T05:04:17.215Z,14.49
2019-06-08T05:08:20.711Z,14.40
2019-06-08T05:12:25.224Z,14.38
2019-06-08T05:16:28.731Z,14.65
2019-06-08T05:20:38.765Z,14.76
2019-06-08T05:24:37.473Z,14.65
2019-06-08T05:28:41.248Z,14.67
2019-06-08T05:32:45.614Z,15.11
2019-06-08T05:36:50.032Z,15.19
2019-06-08T05:40:53.683Z,14.90
2019-06-08T05:44:57.264Z,14.85
2019-06-08T05:49:03.597Z,14.73
2019-06-08T05:53:07.268Z,14.77
2019-06-08T05:57:10.811Z,15.03
2019-06-08T06:01:14.615Z,15.14
2019-06-08T06:05:18.407Z,15.12
2019-06-08T06:09:25.036Z,15.11
2019-06-08T06:13:28.556Z,15.25
2019-06-08T06:17:32.179Z,15.28
2019-06-08T06:21:36.018Z,15.45
2019-06-08T06:25:39.508Z,15.66
2019-06-08T06:29:43.519Z,15.83
2019-06-08T06:33:47.922Z,16.10
2019-06-08T06:37:52.091Z,16.24
2019-06-08T06:41:55.716Z,16.36
2019-06-08T06:45:59.216Z,16.60
2019-06-08T06:50:02.757Z,17.16
2019-06-08T06:54:06.307Z,17.37
2019-06-08T06:58:09.818Z,17.07
2019-06-08T07:02:13.676Z,18.08
2019-06-08T07:06:17.168Z,20.38
2019-06-08T07:10:20.658Z,20.88
2019-06-08T07:14:24.517Z,21.39
2019-06-08T07:18:28.017Z,19.53
2019-06-08T07:22:32.080Z,19.18
2019-06-08T07:26:35.812Z,18.85
2019-06-08T07:30:39.331Z,18.97
2019-06-08T07:34:42.841Z,18.23
2019-06-08T07:38:47.027Z,19.88
2019-06-08T07:42:53.381Z,20.32
2019-06-08T07:46:56.996Z,20.58
2019-06-08T07:51:00.478Z,21.85
2019-06-08T07:55:04.930Z,22.91
2019-06-08T07:59:08.762Z,25.62
2019-06-08T08:03:12.342Z,25.79
2019-06-08T08:07:15.897Z,25.68
2019-06-08T08:11:19.425Z,26.49
2019-06-08T08:15:23.410Z,25.33
2019-06-08T08:19:26.939Z,25.01
2019-06-08T08:23:31.138Z,24.32
2019-06-08T08:27:37.386Z,23.87
2019-06-08T08:31:40.209Z,21.56
2019-06-08T08:35:43.982Z,23.18
2019-06-08T08:39:47.508Z,20.95
2019-06-08T08:43:52.638Z,19.59
2019-06-08T08:48:17.133Z,19.35
2019-06-08T08:52:01.844Z,19.94
2019-06-08T08:56:07.341Z,23.99
2019-06-08T09:00:11.050Z,25.91
2019-06-08T09:04:14.562Z,25.70
2019-06-08T09:08:18.313Z,25.91
2019-06-08T09:12:21.851Z,23.98
2019-06-08T09:16:25.382Z,24.33
2019-06-08T09:20:28.892Z,21.71
2019-06-08T09:24:32.448Z,20.58
2019-06-08T09:28:38.653Z,19.59
2019-06-08T09:32:41.253Z,20.06
2019-06-08T09:36:45.344Z,21.67
2019-06-08T09:40:49.999Z,21.27
2019-06-08T09:44:55.094Z,20.66
2019-06-08T09:49:04.822Z,22.11
2019-06-08T09:53:22.326Z,21.77
2019-06-08T09:57:10.391Z,21.31
2019-06-08T10:01:13.900Z,24.97
2019-06-08T10:05:18.498Z,26.63
2019-06-08T10:09:22.447Z,27.64
2019-06-08T10:13:28.117Z,27.06
2019-06-08T10:17:31.708Z,24.15
2019-06-08T10:21:35.206Z,23.02
2019-06-08T10:25:38.830Z,22.75
2019-06-08T10:29:42.702Z,21.19
2019-06-08T10:33:48.167Z,20.39
2019-06-08T10:37:55.205Z,20.89
2019-06-08T10:41:59.873Z,24.56
2019-06-08T10:46:08.436Z,26.50
2019-06-08T10:50:15.271Z,26.66
2019-06-08T10:54:18.165Z,26.94
2019-06-08T10:58:21.810Z,27.30
2019-06-08T11:02:25.306Z,25.11
2019-06-08T11:06:29.079Z,22.89
2019-06-08T11:10:32.922Z,21.42
2019-06-08T11:14:38.175Z,21.14
2019-06-08T11:18:42.666Z,21.28
2019-06-08T11:22:49.784Z,20.64
2019-06-08T11:26:51.652Z,20.20
2019-06-08T11:30:55.149Z,20.05
2019-06-08T11:34:59.879Z,20.85
2019-06-08T11:39:04.179Z,20.91
2019-06-08T11:43:08.625Z,20.66
2019-06-08T11:47:13.367Z,21.73
2019-06-08T11:51:17.080Z,21.60
2019-06-08T11:55:20.890Z,20.98
2019-06-08T11:59:25.406Z,21.04
2019-06-08T12:03:30.482Z,20.87
2019-06-08T12:07:34.414Z,20.84
2019-06-08T12:11:38.411Z,20.94
2019-06-08T12:15:41.913Z,20.54
2019-06-08T12:19:47.491Z,19.95
2019-06-08T12:23:50.630Z,20.98
2019-06-08T12:27:54.501Z,20.85
2019-06-08T12:32:04.675Z,21.60
2019-06-08T12:36:12.202Z,21.85
2019-06-08T12:40:15.955Z,21.31
2019-06-08T12:44:21.960Z,20.92
2019-06-08T12:48:25.392Z,21.27
2019-06-08T12:52:30.110Z,21.60
2019-06-08T12:56:34.037Z,20.90
2019-06-08T13:00:38.814Z,21.43
2019-06-08T13:04:42.575Z,20.99
2019-06-08T13:08:47.804Z,20.99
2019-06-08T13:12:51.621Z,21.23
2019-06-08T13:16:55.423Z,21.06
2019-06-08T13:21:03.254Z,20.81
2019-06-08T13:25:19.268Z,21.18
2019-06-08T13:29:12.559Z,21.24
2019-06-08T13:33:18.300Z,20.86
2019-06-08T13:37:22.306Z,20.71
2019-06-08T13:41:29.003Z,21.19
2019-06-08T13:45:31.313Z,20.84
2019-06-08T13:49:37.593Z,21.63
2019-06-08T13:53:40.449Z,21.42
2019-06-08T13:57:43.957Z,20.90
2019-06-08T14:01:47.862Z,20.97
2019-06-08T14:05:53.132Z,21.02
2019-06-08T14:09:58.255Z,21.31
2019-06-08T14:14:01.777Z,21.99
2019-06-08T14:18:08.490Z,21.75
2019-06-08T14:22:11.045Z,22.03
2019-06-08T14:26:14.531Z,21.84
2019-06-08T14:30:19.680Z,22.31
2019-06-08T14:34:24.761Z,21.89
2019-06-08T14:38:36.975Z,21.23
2019-06-08T14:42:33.532Z,21.69
2019-06-08T14:46:40.822Z,22.16
2019-06-08T14:50:42.533Z,22.31
2019-06-08T14:54:48.658Z,22.11
2019-06-08T14:58:51.517Z,22.12
2019-06-08T15:02:58.658Z,21.43
2019-06-08T15:07:01.395Z,21.31
2019-06-08T15:11:04.895Z,20.93
2019-06-08T15:15:11.439Z,20.59
2019-06-08T15:19:14.041Z,20.49
2019-06-08T15:23:21.237Z,20.58
2019-06-08T15:27:24.800Z,20.35
2019-06-08T15:31:31.091Z,20.33
2019-06-08T15:35:33.526Z,20.05
2019-06-08T15:39:38.758Z,20.15
2019-06-08T15:43:42.316Z,20.38
2019-06-08T15:47:48.024Z,20.52
2019-06-08T15:51:51.018Z,20.49
2019-06-08T15:55:54.547Z,19.94
2019-06-08T15:59:58.659Z,19.97
2019-06-08T16:04:04.161Z,19.83
2019-06-08T16:08:10.278Z,19.72
2019-06-08T16:12:14.262Z,19.70
2019-06-08T16:16:17.728Z,20.07
2019-06-08T16:20:21.309Z,20.49
2019-06-08T16:24:25.770Z,20.11
2019-06-08T16:28:29.944Z,20.21
2019-06-08T16:32:33.597Z,20.24
2019-06-08T16:36:37.514Z,20.43
2019-06-08T16:40:41.103Z,20.65
2019-06-08T16:44:44.616Z,20.42
2019-06-08T16:48:48.401Z,20.08
2019-06-08T16:52:52.054Z,20.21
2019-06-08T16:57:08.898Z,20.12
2019-06-08T17:01:01.065Z,20.01
2019-06-08T17:05:08.827Z,20.14
2019-06-08T17:09:12.333Z,20.32
2019-06-08T17:13:16.109Z,20.16
2019-06-08T17:17:19.605Z,20.32
2019-06-08T17:21:23.114Z,20.55
2019-06-08T17:25:26.603Z,20.71
2019-06-08T17:29:32.797Z,20.76
2019-06-08T17:33:37.264Z,20.33
2019-06-08T17:37:42.003Z,20.51
2019-06-08T17:41:45.596Z,20.90
2019-06-08T17:45:49.080Z,21.09
2019-06-08T17:49:52.575Z,21.01
2019-06-08T17:53:56.088Z,20.66
2019-06-08T17:57:59.582Z,20.55
2019-06-08T18:02:03.386Z,20.83
2019-06-08T18:06:07.395Z,20.49
2019-06-08T18:10:11.317Z,20.29
2019-06-08T18:14:18.039Z,20.38
2019-06-08T18:18:21.937Z,19.99
2019-06-08T18:22:27.160Z,19.76
2019-06-08T18:26:31.113Z,19.46
2019-06-08T18:30:39.670Z,19.25
2019-06-08T18:34:42.136Z,19.10
2019-06-08T18:38:48.592Z,18.99
2019-06-08T18:42:51.901Z,18.79
2019-06-08T18:46:57.588Z,18.59
2019-06-08T18:51:02.250Z,18.49
2019-06-08T18:55:08.400Z,18.30
2019-06-08T18:59:11.863Z,18.22
2019-06-08T19:03:17.125Z,18.21
2019-06-08T19:07:21.070Z,18.04
2019-06-08T19:11:24.672Z,17.99
2019-06-08T19:15:33.756Z,17.89
2019-06-08T19:19:42.256Z,17.79
2019-06-08T19:23:43.726Z,17.75
2019-06-08T19:27:53.049Z,17.65
2019-06-08T19:31:53.686Z,17.57
2019-06-08T19:35:58.342Z,17.54
2019-06-08T19:40:02.222Z,17.45
2019-06-08T19:44:07.546Z,17.29
2019-06-08T19:48:11.080Z,17.33
2019-06-08T19:52:14.960Z,17.40
2019-06-08T19:56:21.272Z,17.41
2019-06-08T20:00:23.854Z,17.41
2019-06-08T20:04:27.616Z,17.47
2019-06-08T20:08:31.531Z,17.34
2019-06-08T20:12:37.033Z,17.31
2019-06-08T20:16:40.513Z,17.09
2019-06-08T20:20:46.545Z,16.93
2019-06-08T20:24:55.314Z,16.78
2019-06-08T20:29:11.541Z,16.67
2019-06-08T20:33:03.614Z,16.53
2019-06-08T20:37:09.137Z,16.40
2019-06-08T20:41:13.215Z,16.35
2019-06-08T20:45:20.375Z,16.29
2019-06-08T20:49:27.774Z,16.07
2019-06-08T20:53:31.388Z,15.93
2019-06-08T20:57:35.413Z,15.85
2019-06-08T21:01:39.472Z,15.80
2019-06-08T21:05:43.642Z,15.73
2019-06-08T21:09:51.968Z,15.64
2019-06-08T21:13:55.442Z,15.62
2019-06-08T21:18:01.877Z,15.50
2019-06-08T21:22:08.207Z,15.41
2019-06-08T21:26:12.650Z,15.24
2019-06-08T21:30:21.596Z,15.21
2019-06-08T21:34:24.224Z,15.16
2019-06-08T21:38:28.294Z,15.21
2019-06-08T21:42:32.086Z,15.10
2019-06-08T21:46:37.984Z,15.14
2019-06-08T21:50:41.127Z,15.03
2019-06-08T21:54:45.056Z,15.17
2019-06-08T21:58:49.743Z,15.34
2019-06-08T22:02:53.823Z,15.43
2019-06-08T22:07:03.545Z,15.48
2019-06-08T22:11:08.530Z,15.39
2019-06-08T22:15:13.118Z,15.18
2019-06-08T22:19:18.421Z,15.02
2019-06-08T22:23:21.965Z,14.91
2019-06-08T22:27:27.256Z,14.92
2019-06-08T22:31:30.831Z,14.82
2019-06-08T22:35:34.318Z,14.72
2019-06-08T22:39:38.096Z,14.66
2019-06-08T22:43:41.600Z,14.53
2019-06-08T22:47:47.655Z,14.58
2019-06-08T22:51:50.727Z,14.55
2019-06-08T22:55:55.360Z,14.40
2019-06-08T23:00:01.925Z,14.49
2019-06-08T23:04:05.604Z,14.57
2019-06-08T23:08:09.688Z,14.58
2019-06-08T23:12:13.492Z,14.56
2019-06-08T23:16:18.259Z,14.40
2019-06-08T23:20:21.992Z,14.31
2019-06-08T23:24:27.500Z,14.26
2019-06-08T23:28:30.678Z,14.42
2019-06-08T23:32:34.157Z,14.24
2019-06-08T23:36:51.797Z,14.19
2019-06-08T23:40:43.768Z,14.11
2019-06-08T23:44:47.298Z,13.98
2019-06-08T23:48:50.813Z,13.99
2019-06-08T23:52:54.747Z,13.87
2019-06-08T23:56:58.557Z,13.91
